Data for 11/19/2009

Time Sea-Level Adjusted Pressure Absolute Pressure Temperature Relative Humidity Dew Point   
(mb) (inHg) (mb) (inHg) (C) (F) (%) (C) (F)
00:05 1020 30.12 850 25.1 -2.6 27.3 77 -6.1 21.1
00:10 1021 30.15 850 25.1 -3.3 26.1 80 -6.2 20.8
00:15 1021 30.15 850 25.1 -3.5 25.7 80 -6.5 20.3
00:20 1021 30.15 850 25.1 -3.5 25.8 82 -6.2 20.9
00:25 1021 30.15 850 25.1 -2.5 27.6 77 -6 21.2
00:30 1021 30.15 850 25.1 -2.3 27.9 75 -6.2 20.9
00:35 1021 30.15 850 25.1 -2.7 27.2 77 -6.2 20.9
00:40 1021 30.15 850 25.1 -3.1 26.5 80 -6.1 21
00:45 1021 30.15 850 25.1 -3.3 26.1 78 -6.5 20.2
00:50 1021 30.15 850 25.1 -3.4 25.8 78 -6.7 20
00:55 1021 30.15 850 25.1 -3.7 25.4 80 -6.6 20.1
01:00 1021 30.15 850 25.1 -4.4 24.1 83 -6.9 19.7
01:05 1021 30.15 850 25.1 -4.6 23.8 83 -7.1 19.2
01:10 1021 30.15 850 25.1 -4.6 23.7 84 -6.9 19.6
01:15 1021 30.15 850 25.1 -4.3 24.3 81 -7 19.4
01:20 1021 30.15 850 25.1 -3.9 24.9 81 -6.8 19.8
01:25 1021 30.15 850 25.1 -3.6 25.6 79 -6.6 20.1
01:30 1021 30.15 850 25.1 -3.6 25.5 79 -6.7 20
01:35 1021 30.15 850 25.1 -3 26.6 77 -6.5 20.3
01:40 1021 30.15 850 25.1 -3.2 26.2 80 -6.3 20.7
01:45 1021 30.15 850 25.1 -3.4 25.9 79 -6.4 20.4
01:50 1021 30.15 850 25.1 -3.5 25.7 78 -6.9 19.6
01:55 1021 30.15 850 25.1 -4.7 23.6 82 -7.3 18.8
02:00 1021 30.15 850 25.1 -4.5 24 81 -7.3 18.9
02:05 1021 30.15 850 25.1 -4.2 24.4 80 -7.2 19.1
02:10 1021 30.15 850 25.1 -4.2 24.4 81 -7 19.4
02:15 1021 30.15 850 25.1 -4.7 23.5 84 -7.1 19.3
02:20 1021 30.15 850 25.1 -4.9 23.1 84 -7.2 19.1
02:25 1021 30.15 850 25.1 -4.6 23.8 82 -7.1 19.2
02:30 1021 30.15 850 25.1 -4.5 24 82 -7.1 19.2
02:35 1021 30.15 850 25.1 -4.5 23.9 82 -7.2 19.1
02:40 1021 30.15 850 25.1 -4.5 23.9 81 -7.3 18.9
02:45 1021 30.15 850 25.1 -4.6 23.7 82 -7.2 19
02:50 1021 30.15 850 25.1 -4.9 23.2 83 -7.3 18.8
02:55 1021 30.15 850 25.1 -5 23 83 -7.4 18.6
03:00 1021 30.15 850 25.1 -5.1 22.9 84 -7.5 18.6
03:05 1021 30.15 850 25.1 -4.8 23.3 83 -7.4 18.8
03:10 1021 30.15 850 25.1 -4.9 23.2 84 -7.3 18.9
03:15 1020 30.12 850 25.1 -4.9 23.2 84 -7.2 19
03:20 1021 30.15 850 25.1 -4.6 23.8 82 -7.2 19.1
03:25 1020 30.12 850 25.1 -4.3 24.2 81 -7.1 19.2
03:30 1020 30.12 850 25.1 -4.5 23.8 82 -7.2 19
03:35 1020 30.12 850 25.1 -4.6 23.6 82 -7.2 19
03:40 1020 30.12 850 25.1 -4.7 23.5 83 -7.3 18.9
03:45 1020 30.12 849 25.07 -4.8 23.4 83 -7.3 18.9
03:50 1020 30.12 849 25.07 -4.8 23.3 83 -7.3 18.9
03:55 1020 30.12 849 25.07 -4.8 23.3 82 -7.4 18.7
04:00 1020 30.12 849 25.07 -5 23 84 -7.3 18.8
04:05 1020 30.12 849 25.07 -4.9 23.2 83 -7.3 18.8
04:10 1020 30.12 849 25.07 -4.9 23.1 84 -7.3 18.9
04:15 1020 30.12 849 25.07 -4.9 23.1 83 -7.4 18.7
04:20 1020 30.12 849 25.07 -5 23 84 -7.3 18.9
04:25 1020 30.12 850 25.1 -4.9 23.2 82 -7.4 18.6
04:30 1020 30.12 850 25.1 -4.6 23.7 83 -7 19.3
04:35 1020 30.12 850 25.1 -4.2 24.5 82 -6.9 19.7
04:40 1020 30.12 850 25.1 -4.3 24.3 82 -6.8 19.7
04:45 1020 30.12 850 25.1 -4.4 24.1 81 -7.2 19.1
04:50 1020 30.12 850 25.1 -4.3 24.3 82 -6.9 19.5
04:55 1020 30.12 850 25.1 -3.8 25.1 79 -7 19.4
05:00 1021 30.15 850 25.1 -4 24.7 81 -6.8 19.7
05:05 1021 30.15 850 25.1 -4.5 24 80 -7.3 18.8
05:10 1021 30.15 850 25.1 -4.2 24.4 79 -7.4 18.8
05:15 1021 30.15 850 25.1 -4.7 23.6 82 -7.3 18.9
05:20 1021 30.15 850 25.1 -5.1 22.8 83 -7.5 18.5
05:25 1021 30.15 850 25.1 -5.2 22.6 84 -7.5 18.5
05:30 1021 30.15 850 25.1 -5.3 22.5 85 -7.5 18.5
05:35 1021 30.15 850 25.1 -5.3 22.5 84 -7.5 18.5
05:40 1021 30.15 850 25.1 -5.5 22 86 -7.6 18.3
05:45 1021 30.15 850 25.1 -5.8 21.5 86 -7.9 17.8
05:50 1021 30.15 850 25.1 -6.3 20.6 87 -8.1 17.3
05:55 1021 30.15 850 25.1 -6.4 20.4 87 -8.2 17.2
06:00 1021 30.15 850 25.1 -6.4 20.6 87 -8.2 17.3
06:05 1021 30.15 850 25.1 -6.4 20.5 88 -8.1 17.4
06:10 1021 30.15 850 25.1 -5.9 21.5 86 -7.9 17.8
06:15 1021 30.15 850 25.1 -5.8 21.6 85 -7.9 17.8
06:20 1021 30.15 850 25.1 -6.1 21 87 -8 17.6
06:25 1021 30.15 850 25.1 -6.2 20.8 85 -8.3 17
06:30 1021 30.15 850 25.1 -6.1 21 85 -8.3 17.1
06:35 1021 30.15 850 25.1 -6.4 20.5 85 -8.4 16.8
06:40 1021 30.15 850 25.1 -6.8 19.8 88 -8.5 16.7
06:45 1021 30.15 850 25.1 -6.6 20.2 87 -8.4 16.8
06:50 1021 30.15 850 25.1 -6 21.1 85 -8.1 17.4
06:55 1021 30.15 850 25.1 -5.1 22.8 82 -7.7 18.2
07:00 1021 30.15 850 25.1 -4.5 23.8 80 -7.5 18.5
07:05 1021 30.15 850 25.1 -4.4 24.1 79 -7.5 18.5
07:10 1020 30.12 850 25.1 -4.2 24.4 79 -7.4 18.6
07:15 1020 30.12 850 25.1 -4 24.9 78 -7.3 18.8
07:20 1021 30.15 850 25.1 -3.9 25 77 -7.3 18.9
07:25 1021 30.15 850 25.1 -4.2 24.4 78 -7.4 18.7
07:30 1020 30.12 850 25.1 -4.8 23.4 81 -7.6 18.3
07:35 1020 30.12 850 25.1 -4.7 23.5 80 -7.6 18.4
07:40 1021 30.15 850 25.1 -4.4 24 80 -7.4 18.7
07:45 1021 30.15 850 25.1 -3.9 25 77 -7.3 18.9
07:50 1021 30.15 850 25.1 -3.6 25.4 76 -7.2 19
07:55 1021 30.15 850 25.1 -3.4 25.9 75 -7.3 18.9
08:00 1021 30.15 850 25.1 -3.1 26.5 73 -7.2 19
08:05 1021 30.15 850 25.1 -2.8 26.9 72 -7.2 19
08:10 1021 30.15 850 25.1 -2.6 27.4 71 -7.1 19.2
08:15 1021 30.15 850 25.1 -2.5 27.6 71 -7.1 19.2
08:20 1021 30.15 850 25.1 -2.8 26.9 71 -7.3 18.9
08:25 1021 30.15 850 25.1 -3 26.6 72 -7.4 18.7
08:30 1021 30.15 850 25.1 -3.3 26.1 72 -7.7 18.1
08:35 1021 30.15 850 25.1 -3.6 25.5 73 -7.9 17.8
08:40 1021 30.15 850 25.1 -3.7 25.4 72 -8 17.5
08:45 1021 30.15 850 25.1 -3.6 25.4 71 -8.2 17.2
08:50 1021 30.15 850 25.1 -3.1 26.5 68 -8.1 17.4
08:55 1021 30.15 850 25.1 -2.7 27.2 66 -8.1 17.4
09:00 1021 30.15 850 25.1 -2.9 26.9 67 -8.1 17.4
09:05 1021 30.15 850 25.1 -2.8 27.1 67 -8.1 17.4
09:10 1021 30.15 850 25.1 -2.3 27.9 64 -8.2 17.2
09:15 1021 30.15 850 25.1 -1.8 28.8 62 -8.1 17.4
09:20 1021 30.15 850 25.1 -1.1 30 60 -8 17.7
09:25 1021 30.15 850 25.1 -0.9 30.3 60 -7.8 17.9
09:30 1021 30.15 850 25.1 -0.6 30.9 58 -7.9 17.8
09:35 1021 30.15 850 25.1 -1.2 29.9 60 -7.9 17.7
09:40 1021 30.15 850 25.1 -1.2 29.8 61 -7.8 17.9
09:45 1021 30.15 850 25.1 -0.4 31.3 57 -8 17.6
09:50 1021 30.15 850 25.1 0.4 32.6 54 -7.8 17.9
09:55 1021 30.15 850 25.1 1.3 34.3 52 -7.5 18.5
10:00 1021 30.15 850 25.1 1.6 34.8 52 -7.4 18.7
10:05 1021 30.15 850 25.1 1.9 35.4 50 -7.6 18.4
10:10 1021 30.15 850 25.1 2.2 35.9 49 -7.5 18.5
10:15 1021 30.15 850 25.1 2.5 36.5 48 -7.5 18.4
10:20 1020 30.12 850 25.1 2.6 36.8 49 -7 19.5
10:25 1020 30.12 850 25.1 2.7 36.8 49 -6.9 19.6
10:30 1020 30.12 850 25.1 2.7 36.8 51 -6.4 20.5
10:35 1020 30.12 850 25.1 1.9 35.4 53 -6.7 19.9
10:40 1020 30.12 850 25.1 2.4 36.3 50 -7.1 19.2
10:45 1020 30.12 850 25.1 2.6 36.6 52 -6.3 20.6
10:50 1020 30.12 850 25.1 1.6 34.9 53 -7.1 19.3
10:55 1020 30.12 849 25.07 1.5 34.7 55 -6.6 20.1
11:00 1020 30.12 849 25.07 1.9 35.5 51 -7.2 19
11:05 1020 30.12 849 25.07 3.2 37.8 48 -6.8 19.8
11:10 1020 30.12 849 25.07 3.6 38.4 47 -6.7 19.9
11:15 1020 30.12 849 25.07 3.8 38.9 47 -6.3 20.6
11:20 1020 30.12 849 25.07 3.6 38.6 48 -6.5 20.3
11:25 1020 30.12 849 25.07 3.6 38.5 48 -6.4 20.5
11:30 1020 30.12 849 25.07 2.4 36.3 52 -6.5 20.3
11:35 1020 30.12 849 25.07 1.5 34.7 55 -6.7 20
11:40 1020 30.12 849 25.07 1 33.8 57 -6.6 20.1
11:45 1020 30.12 849 25.07 1.6 34.9 52 -7.1 19.1
11:50 1020 30.12 849 25.07 2.1 35.8 52 -6.8 19.7
11:55 1020 30.12 849 25.07 2.2 36 51 -6.8 19.7
12:00 1020 30.12 849 25.07 2.5 36.5 51 -6.7 19.9
12:05 1020 30.12 849 25.07 2.9 37.2 54 -5.5 22
12:10 1020 30.12 849 25.07 2.1 35.8 57 -5.6 21.9
12:15 1019 30.09 849 25.07 1.9 35.3 54 -6.5 20.3
12:20 1019 30.09 849 25.07 2.1 35.8 54 -6.3 20.6
12:25 1019 30.09 849 25.07 3.3 37.9 49 -6.5 20.2
12:30 1019 30.09 848 25.04 4.6 40.3 47 -5.7 21.7
12:35 1019 30.09 849 25.07 4.4 39.9 45 -6.5 20.3
12:40 1019 30.09 848 25.04 3.5 38.4 48 -6.5 20.3
12:45 1019 30.09 848 25.04 4.3 39.7 48 -5.8 21.5
12:50 1019 30.09 848 25.04 4.9 40.8 42 -6.9 19.7
12:55 1019 30.09 848 25.04 4.8 40.7 42 -6.9 19.6
13:00 1019 30.09 848 25.04 4.4 39.9 44 -6.7 20
13:05 1019 30.09 848 25.04 4.9 40.9 41 -7.2 19
13:10 1019 30.09 848 25.04 4.9 40.9 42 -7.1 19.2
13:15 1019 30.09 848 25.04 5.1 41.2 41 -7.2 19
13:20 1019 30.09 848 25.04 5.1 41.1 43 -6.6 20.1
13:25 1019 30.09 848 25.04 5.4 41.6 44 -5.9 21.3
13:30 1019 30.09 848 25.04 5.3 41.5 46 -5.4 22.4
13:35 1019 30.09 848 25.04 5.4 41.8 46 -5.2 22.6
13:40 1019 30.09 848 25.04 5.9 42.7 45 -5.2 22.6
13:45 1019 30.09 848 25.04 5.9 42.6 45 -5.2 22.6
13:50 1019 30.09 848 25.04 5.9 42.7 44 -5.5 22
13:55 1019 30.09 848 25.04 6 42.8 43 -5.6 21.9
14:00 1019 30.09 848 25.04 5.5 41.9 47 -4.8 23.4
14:05 1019 30.09 848 25.04 4.7 40.4 51 -4.6 23.7
14:10 1019 30.09 848 25.04 3.4 38.1 54 -5 23
14:15 1019 30.09 848 25.04 3.7 38.7 52 -5.3 22.4
14:20 1019 30.09 848 25.04 3.8 38.9 53 -4.9 23.1
14:25 1019 30.09 848 25.04 4 39.2 50 -5.5 22.1
14:30 1019 30.09 848 25.04 4.3 39.7 50 -5.3 22.4
14:35 1019 30.09 848 25.04 4.5 40.1 48 -5.7 21.8
14:40 1019 30.09 848 25.04 4.9 40.7 46 -5.8 21.5
14:45 1019 30.09 848 25.04 5.1 41.3 47 -5.4 22.3
14:50 1019 30.09 848 25.04 4.9 40.9 47 -5.4 22.3
14:55 1019 30.09 848 25.04 5.2 41.4 48 -4.9 23.1
15:00 1019 30.09 848 25.04 4.8 40.7 51 -4.5 23.9
15:05 1019 30.09 848 25.04 4.6 40.3 49 -5.2 22.6
15:10 1019 30.09 848 25.04 4.8 40.6 49 -5 23
15:15 1019 30.09 848 25.04 4.1 39.3 51 -5.1 22.9
15:20 1019 30.09 848 25.04 3.8 38.9 52 -5.1 22.9
15:25 1019 30.09 848 25.04 4 39.1 53 -4.7 23.5
15:30 1019 30.09 848 25.04 3.2 37.7 54 -5.3 22.5
15:35 1019 30.09 848 25.04 2.7 36.9 51 -6.4 20.5
15:40 1019 30.09 848 25.04 3.1 37.5 49 -6.7 19.9
15:45 1019 30.09 848 25.04 3.1 37.6 48 -6.9 19.5
15:50 1019 30.09 848 25.04 3.3 37.9 47 -6.9 19.6
15:55 1019 30.09 848 25.04 3.6 38.5 47 -6.7 20
16:00 1019 30.09 848 25.04 3.6 38.5 45 -7.1 19.2
16:05 1019 30.09 848 25.04 3.8 38.8 42 -7.9 17.8
16:10 1019 30.09 848 25.04 4 39.2 42 -7.7 18.1
16:15 1019 30.09 848 25.04 3.9 39.1 41 -8.2 17.3
16:20 1019 30.09 848 25.04 4.2 39.6 45 -6.7 20
16:25 1019 30.09 848 25.04 4.3 39.8 48 -5.6 21.8
16:30 1019 30.09 848 25.04 4.2 39.6 50 -5.2 22.7
16:35 1019 30.09 848 25.04 4 39.3 52 -5 22.9
16:40 1019 30.09 848 25.04 3.5 38.3 54 -4.8 23.4
16:45 1019 30.09 848 25.04 3 37.4 57 -4.7 23.5
16:50 1019 30.09 848 25.04 2.6 36.6 58 -5 23.1
16:55 1019 30.09 848 25.04 2.2 36 57 -5.5 22.1
17:00 1019 30.09 848 25.04 1.8 35.2 60 -5.2 22.6
17:05 1019 30.09 848 25.04 1.3 34.3 57 -6.3 20.7
17:10 1019 30.09 848 25.04 1.3 34.3 55 -6.8 19.7
17:15 1019 30.09 848 25.04 1.1 34 57 -6.4 20.5
17:20 1019 30.09 848 25.04 1 33.7 56 -6.9 19.6
17:25 1019 30.09 848 25.04 1.5 34.8 54 -6.7 19.9
17:30 1019 30.09 848 25.04 1.6 34.9 54 -6.7 20
17:35 1019 30.09 849 25.07 1.1 34 55 -7 19.4
17:40 1019 30.09 849 25.07 1 33.7 55 -7.1 19.2
17:45 1019 30.09 849 25.07 1 33.8 54 -7.3 18.8
17:50 1019 30.09 849 25.07 0.8 33.4 59 -6.4 20.5
17:55 1019 30.09 848 25.04 0.1 32.2 59 -7 19.5
18:00 1019 30.09 848 25.04 -0.3 31.5 56 -8.1 17.4
18:05 1019 30.09 848 25.04 -0.1 31.9 54 -8.3 17.1
18:10 1019 30.09 849 25.07 0.6 33.1 48 -9.1 15.6
18:15 1019 30.09 849 25.07 1.3 34.3 47 -8.9 16
18:20 1019 30.09 849 25.07 1.4 34.6 45 -9.1 15.5
18:25 1019 30.09 849 25.07 1.6 34.9 48 -8.2 17.2
18:30 1019 30.09 849 25.07 0.8 33.5 51 -8.3 17.1
18:35 1019 30.09 849 25.07 0.5 32.8 53 -8.2 17.3
18:40 1019 30.09 849 25.07 0.7 33.3 52 -8 17.5
18:45 1019 30.09 849 25.07 0.5 32.9 52 -8.3 17
18:50 1019 30.09 849 25.07 1.1 33.9 52 -7.7 18.2
18:55 1020 30.12 849 25.07 0.7 33.2 55 -7.4 18.6
19:00 1020 30.12 849 25.07 0.7 33.3 54 -7.4 18.6
19:05 1020 30.12 849 25.07 1 33.9 55 -7.1 19.3
19:10 1020 30.12 849 25.07 0.5 32.9 55 -7.5 18.5
19:15 1020 30.12 849 25.07 1 33.8 53 -7.6 18.3
19:20 1020 30.12 849 25.07 1.2 34.2 52 -7.5 18.5
19:25 1020 30.12 849 25.07 1.6 34.9 51 -7.5 18.5
19:30 1020 30.12 849 25.07 1.5 34.6 51 -7.7 18.2
19:35 1020 30.12 849 25.07 1.3 34.4 51 -7.7 18.2
19:40 1020 30.12 849 25.07 1.3 34.4 51 -7.7 18.2
19:45 1020 30.12 849 25.07 1.3 34.4 50 -8 17.5
19:50 1020 30.12 849 25.07 1.3 34.3 51 -7.9 17.9
19:55 1020 30.12 849 25.07 1.5 34.8 49 -8.1 17.4
20:00 1020 30.12 849 25.07 0.3 32.5 57 -7.3 18.8
20:05 1020 30.12 849 25.07 -0.2 31.6 55 -8.2 17.3
20:10 1020 30.12 849 25.07 0.7 33.3 52 -8.1 17.4
20:15 1020 30.12 849 25.07 1 33.8 53 -7.4 18.6
20:20 1020 30.12 849 25.07 1 33.7 53 -7.6 18.3
20:25 1020 30.12 849 25.07 0.9 33.7 54 -7.4 18.6
20:30 1020 30.12 849 25.07 0.8 33.4 53 -7.6 18.2
20:35 1020 30.12 849 25.07 1 33.7 53 -7.7 18.2
20:40 1020 30.12 849 25.07 1.1 33.9 52 -7.7 18.2
20:45 1020 30.12 849 25.07 0.8 33.5 53 -7.8 18
20:50 1020 30.12 849 25.07 0.6 33.1 53 -7.9 17.7
20:55 1020 30.12 849 25.07 0.6 33.2 53 -7.9 17.8
21:00 1019 30.09 849 25.07 0.6 33 52 -8.1 17.5
21:05 1019 30.09 849 25.07 0.7 33.2 52 -8 17.7
21:10 1019 30.09 849 25.07 0.7 33.2 51 -8.3 17
21:15 1019 30.09 849 25.07 0.9 33.7 51 -8 17.6
21:20 1019 30.09 849 25.07 0.9 33.6 51 -8.2 17.2
21:25 1019 30.09 848 25.04 1.1 33.9 50 -8.3 17.1
21:30 1019 30.09 849 25.07 1.2 34.1 50 -8.2 17.2
21:35 1019 30.09 849 25.07 0.9 33.7 49 -8.6 16.5
21:40 1019 30.09 849 25.07 1.1 33.9 48 -8.6 16.5
21:45 1019 30.09 849 25.07 1.4 34.5 48 -8.6 16.6
21:50 1019 30.09 849 25.07 1.4 34.4 47 -8.7 16.4
21:55 1019 30.09 849 25.07 1.3 34.4 48 -8.6 16.5
22:00 1019 30.09 849 25.07 1.3 34.4 46 -9 15.8
22:05 1019 30.09 849 25.07 1.6 34.8 46 -8.7 16.3
22:10 1019 30.09 849 25.07 1.3 34.4 46 -9 15.9
22:15 1019 30.09 849 25.07 1.3 34.3 48 -8.6 16.5
22:20 1019 30.09 849 25.07 1 33.7 48 -8.9 16.1
22:25 1019 30.09 849 25.07 0.7 33.3 48 -9 15.9
22:30 1019 30.09 849 25.07 0.8 33.5 49 -8.8 16.1
22:35 1019 30.09 849 25.07 0.8 33.5 48 -9 15.8
22:40 1019 30.09 849 25.07 1.3 34.4 46 -8.9 15.9
22:45 1019 30.09 849 25.07 1.3 34.4 47 -8.8 16.2
22:50 1019 30.09 849 25.07 1.3 34.4 46 -9 15.7
22:55 1019 30.09 849 25.07 1.5 34.6 46 -9 15.8
23:00 1019 30.09 849 25.07 1.5 34.6 46 -9 15.7
23:05 1019 30.09 849 25.07 1.6 34.8 45 -9 15.8
23:10 1019 30.09 849 25.07 1.3 34.3 46 -9 15.8
23:15 1019 30.09 849 25.07 1.2 34.2 47 -9 15.8
23:20 1019 30.09 849 25.07 1.1 34 46 -9.1 15.6
23:25 1019 30.09 849 25.07 1.2 34.1 46 -9.1 15.7
23:30 1019 30.09 849 25.07 1.5 34.6 45 -9.1 15.6
23:35 1019 30.09 849 25.07 1.8 35.2 42 -9.9 14.2
23:40 1019 30.09 849 25.07 2 35.7 41 -9.8 14.3
23:45 1019 30.09 849 25.07 1.8 35.3 43 -9.4 15
23:50 1019 30.09 849 25.07 1.8 35.3 41 -10.1 13.9
23:55 1019 30.09 849 25.07 2.1 35.7 42 -9.5 14.9
24:00 1019 30.09 849 25.07 1.6 34.8 44 -9.5 14.9